sensor_id;sensor_type;location;lat;lon;timestamp;temperature;humidity
54684;DHT22;40582;53.100;6.686;2023-04-07T00:02:19;7.40;99.90
54684;DHT22;40582;53.100;6.686;2023-04-07T00:04:44;7.40;99.90
54684;DHT22;40582;53.100;6.686;2023-04-07T00:07:10;7.40;99.90
54684;DHT22;40582;53.100;6.686;2023-04-07T00:09:36;7.40;99.90
54684;DHT22;40582;53.100;6.686;2023-04-07T00:12:02;7.40;99.90
54684;DHT22;40582;53.100;6.686;2023-04-07T00:14:28;7.40;99.90
54684;DHT22;40582;53.100;6.686;2023-04-07T00:16:53;7.40;99.90
54684;DHT22;40582;53.100;6.686;2023-04-07T00:19:19;7.40;99.90
54684;DHT22;40582;53.100;6.686;2023-04-07T00:21:45;7.30;99.90
54684;DHT22;40582;53.100;6.686;2023-04-07T00:24:10;7.30;99.90
54684;DHT22;40582;53.100;6.686;2023-04-07T00:26:37;7.30;99.90
54684;DHT22;40582;53.100;6.686;2023-04-07T00:29:02;7.30;99.90
54684;DHT22;40582;53.100;6.686;2023-04-07T00:31:28;7.30;99.90
54684;DHT22;40582;53.100;6.686;2023-04-07T00:33:54;7.40;99.90
54684;DHT22;40582;53.100;6.686;2023-04-07T00:36:22;7.30;99.90
54684;DHT22;40582;53.100;6.686;2023-04-07T00:38:48;7.40;99.90
54684;DHT22;40582;53.100;6.686;2023-04-07T00:41:13;7.40;99.90
54684;DHT22;40582;53.100;6.686;2023-04-07T00:43:39;7.30;99.90
54684;DHT22;40582;53.100;6.686;2023-04-07T00:46:05;7.30;99.90
54684;DHT22;40582;53.100;6.686;2023-04-07T00:48:31;7.30;99.90
54684;DHT22;40582;53.100;6.686;2023-04-07T00:50:56;7.40;99.90
54684;DHT22;40582;53.100;6.686;2023-04-07T00:53:22;7.40;99.90
54684;DHT22;40582;53.100;6.686;2023-04-07T00:55:48;7.40;99.90
54684;DHT22;40582;53.100;6.686;2023-04-07T00:58:14;7.40;99.90
54684;DHT22;40582;53.100;6.686;2023-04-07T01:03:34;7.40;99.90
54684;DHT22;40582;53.100;6.686;2023-04-07T01:06:01;7.40;99.90
54684;DHT22;40582;53.100;6.686;2023-04-07T01:13:59;7.30;99.90
54684;DHT22;40582;53.100;6.686;2023-04-07T01:16:38;7.30;99.90
54684;DHT22;40582;53.100;6.686;2023-04-07T01:19:23;7.30;99.90
54684;DHT22;40582;53.100;6.686;2023-04-07T01:21:57;7.30;99.90
54684;DHT22;40582;53.100;6.686;2023-04-07T01:26:50;7.30;99.90
54684;DHT22;40582;53.100;6.686;2023-04-07T01:29:29;7.30;99.90
54684;DHT22;40582;53.100;6.686;2023-04-07T01:31:59;7.30;99.90
54684;DHT22;40582;53.100;6.686;2023-04-07T01:34:29;7.30;99.90
54684;DHT22;40582;53.100;6.686;2023-04-07T01:36:57;7.30;99.90
54684;DHT22;40582;53.100;6.686;2023-04-07T01:39:26;7.30;99.90
54684;DHT22;40582;53.100;6.686;2023-04-07T01:41:52;7.30;99.90
54684;DHT22;40582;53.100;6.686;2023-04-07T01:44:19;7.30;99.90
54684;DHT22;40582;53.100;6.686;2023-04-07T01:46:46;7.30;99.90
54684;DHT22;40582;53.100;6.686;2023-04-07T01:49:14;7.30;99.90
54684;DHT22;40582;53.100;6.686;2023-04-07T01:51:40;7.30;99.90
54684;DHT22;40582;53.100;6.686;2023-04-07T01:54:07;7.30;99.90
54684;DHT22;40582;53.100;6.686;2023-04-07T01:56:33;7.30;99.90
54684;DHT22;40582;53.100;6.686;2023-04-07T01:58:59;7.30;99.90
54684;DHT22;40582;53.100;6.686;2023-04-07T02:01:25;7.30;99.90
54684;DHT22;40582;53.100;6.686;2023-04-07T02:04:25;7.30;99.90
54684;DHT22;40582;53.100;6.686;2023-04-07T02:06:55;7.30;99.90
54684;DHT22;40582;53.100;6.686;2023-04-07T02:09:26;7.30;99.90
54684;DHT22;40582;53.100;6.686;2023-04-07T02:11:54;7.30;99.90
54684;DHT22;40582;53.100;6.686;2023-04-07T02:14:23;7.30;99.90
54684;DHT22;40582;53.100;6.686;2023-04-07T02:16:50;7.30;99.90
54684;DHT22;40582;53.100;6.686;2023-04-07T02:19:17;7.30;99.90
54684;DHT22;40582;53.100;6.686;2023-04-07T02:21:44;7.30;99.90
54684;DHT22;40582;53.100;6.686;2023-04-07T02:24:11;7.30;99.90
54684;DHT22;40582;53.100;6.686;2023-04-07T02:26:36;7.30;99.90
54684;DHT22;40582;53.100;6.686;2023-04-07T02:29:03;7.30;99.90
54684;DHT22;40582;53.100;6.686;2023-04-07T02:31:29;7.30;99.90
54684;DHT22;40582;53.100;6.686;2023-04-07T02:33:54;7.30;99.90
54684;DHT22;40582;53.100;6.686;2023-04-07T02:36:20;7.30;99.90
54684;DHT22;40582;53.100;6.686;2023-04-07T02:38:46;7.30;99.90
54684;DHT22;40582;53.100;6.686;2023-04-07T02:41:12;7.30;99.90
54684;DHT22;40582;53.100;6.686;2023-04-07T02:43:37;7.30;99.90
54684;DHT22;40582;53.100;6.686;2023-04-07T02:46:03;7.30;99.90
54684;DHT22;40582;53.100;6.686;2023-04-07T02:48:29;7.30;99.90
54684;DHT22;40582;53.100;6.686;2023-04-07T02:50:54;7.30;99.90
54684;DHT22;40582;53.100;6.686;2023-04-07T02:53:20;7.30;99.90
54684;DHT22;40582;53.100;6.686;2023-04-07T02:55:46;7.30;99.90
54684;DHT22;40582;53.100;6.686;2023-04-07T02:58:11;7.30;99.90
54684;DHT22;40582;53.100;6.686;2023-04-07T03:00:37;7.30;99.90
54684;DHT22;40582;53.100;6.686;2023-04-07T03:03:03;7.30;99.90
54684;DHT22;40582;53.100;6.686;2023-04-07T03:05:28;7.20;99.90
54684;DHT22;40582;53.100;6.686;2023-04-07T03:07:54;7.20;99.90
54684;DHT22;40582;53.100;6.686;2023-04-07T03:10:20;7.20;99.90
54684;DHT22;40582;53.100;6.686;2023-04-07T03:12:45;7.20;99.90
54684;DHT22;40582;53.100;6.686;2023-04-07T03:15:11;7.30;99.90
54684;DHT22;40582;53.100;6.686;2023-04-07T03:17:37;7.30;99.90
54684;DHT22;40582;53.100;6.686;2023-04-07T03:20:03;7.20;99.90
54684;DHT22;40582;53.100;6.686;2023-04-07T03:22:28;7.20;99.90
54684;DHT22;40582;53.100;6.686;2023-04-07T03:24:54;7.30;99.90
54684;DHT22;40582;53.100;6.686;2023-04-07T03:27:20;7.30;99.90
54684;DHT22;40582;53.100;6.686;2023-04-07T03:29:46;7.30;99.90
54684;DHT22;40582;53.100;6.686;2023-04-07T03:32:11;7.20;99.90
54684;DHT22;40582;53.100;6.686;2023-04-07T03:34:37;7.20;99.90
54684;DHT22;40582;53.100;6.686;2023-04-07T03:37:03;7.20;99.90
54684;DHT22;40582;53.100;6.686;2023-04-07T03:39:29;7.20;99.90
54684;DHT22;40582;53.100;6.686;2023-04-07T03:41:56;7.20;99.90
54684;DHT22;40582;53.100;6.686;2023-04-07T03:44:22;7.20;99.90
54684;DHT22;40582;53.100;6.686;2023-04-07T03:46:47;7.20;99.90
54684;DHT22;40582;53.100;6.686;2023-04-07T03:49:15;7.20;99.90
54684;DHT22;40582;53.100;6.686;2023-04-07T03:51:41;7.20;99.90
54684;DHT22;40582;53.100;6.686;2023-04-07T03:54:06;7.20;99.90
54684;DHT22;40582;53.100;6.686;2023-04-07T03:56:32;7.10;99.90
54684;DHT22;40582;53.100;6.686;2023-04-07T03:58:58;7.10;99.90
54684;DHT22;40582;53.100;6.686;2023-04-07T04:01:23;7.10;99.90
54684;DHT22;40582;53.100;6.686;2023-04-07T04:03:49;7.10;99.90
54684;DHT22;40582;53.100;6.686;2023-04-07T04:06:15;7.10;99.90
54684;DHT22;40582;53.100;6.686;2023-04-07T04:08:41;7.10;99.90
54684;DHT22;40582;53.100;6.686;2023-04-07T04:11:07;7.10;99.90
54684;DHT22;40582;53.100;6.686;2023-04-07T04:13:32;7.10;99.90
54684;DHT22;40582;53.100;6.686;2023-04-07T04:15:58;7.10;99.90
54684;DHT22;40582;53.100;6.686;2023-04-07T04:18:24;7.10;99.90
54684;DHT22;40582;53.100;6.686;2023-04-07T04:20:49;7.10;99.90
54684;DHT22;40582;53.100;6.686;2023-04-07T04:23:15;7.10;99.90
54684;DHT22;40582;53.100;6.686;2023-04-07T04:25:41;7.10;99.90
54684;DHT22;40582;53.100;6.686;2023-04-07T04:28:06;7.10;99.90
54684;DHT22;40582;53.100;6.686;2023-04-07T04:30:32;7.10;99.90
54684;DHT22;40582;53.100;6.686;2023-04-07T04:32:58;7.10;99.90
54684;DHT22;40582;53.100;6.686;2023-04-07T04:35:23;7.10;99.90
54684;DHT22;40582;53.100;6.686;2023-04-07T04:37:50;7.10;99.90
54684;DHT22;40582;53.100;6.686;2023-04-07T04:40:16;7.10;99.90
54684;DHT22;40582;53.100;6.686;2023-04-07T04:42:41;7.10;99.90
54684;DHT22;40582;53.100;6.686;2023-04-07T04:45:07;7.10;99.90
54684;DHT22;40582;53.100;6.686;2023-04-07T04:47:33;7.10;99.90
54684;DHT22;40582;53.100;6.686;2023-04-07T04:49:59;7.10;99.90
54684;DHT22;40582;53.100;6.686;2023-04-07T04:52:24;7.00;99.90
54684;DHT22;40582;53.100;6.686;2023-04-07T04:54:52;7.10;99.90
54684;DHT22;40582;53.100;6.686;2023-04-07T04:57:18;7.10;99.90
54684;DHT22;40582;53.100;6.686;2023-04-07T04:59:43;7.10;99.90
54684;DHT22;40582;53.100;6.686;2023-04-07T05:02:09;7.10;99.90
54684;DHT22;40582;53.100;6.686;2023-04-07T05:04:34;7.10;99.90
54684;DHT22;40582;53.100;6.686;2023-04-07T05:07:01;7.10;99.90
54684;DHT22;40582;53.100;6.686;2023-04-07T05:09:26;7.10;99.90
54684;DHT22;40582;53.100;6.686;2023-04-07T05:11:52;7.10;99.90
54684;DHT22;40582;53.100;6.686;2023-04-07T05:14:17;7.10;99.90
54684;DHT22;40582;53.100;6.686;2023-04-07T05:16:43;7.00;99.90
54684;DHT22;40582;53.100;6.686;2023-04-07T05:19:09;7.10;99.90
54684;DHT22;40582;53.100;6.686;2023-04-07T05:21:35;7.10;99.90
54684;DHT22;40582;53.100;6.686;2023-04-07T05:24:00;7.10;99.90
54684;DHT22;40582;53.100;6.686;2023-04-07T05:26:26;7.10;99.90
54684;DHT22;40582;53.100;6.686;2023-04-07T05:28:52;7.10;99.90
54684;DHT22;40582;53.100;6.686;2023-04-07T05:31:18;7.10;99.90
54684;DHT22;40582;53.100;6.686;2023-04-07T05:33:43;7.10;99.90
54684;DHT22;40582;53.100;6.686;2023-04-07T05:36:09;7.10;99.90
54684;DHT22;40582;53.100;6.686;2023-04-07T05:38:35;7.10;99.90
54684;DHT22;40582;53.100;6.686;2023-04-07T05:41:00;7.00;99.90
54684;DHT22;40582;53.100;6.686;2023-04-07T05:43:26;7.00;99.90
54684;DHT22;40582;53.100;6.686;2023-04-07T05:45:52;7.00;99.90
54684;DHT22;40582;53.100;6.686;2023-04-07T05:48:17;7.00;99.90
54684;DHT22;40582;53.100;6.686;2023-04-07T05:50:43;7.00;99.90
54684;DHT22;40582;53.100;6.686;2023-04-07T05:53:09;7.00;99.90
54684;DHT22;40582;53.100;6.686;2023-04-07T05:55:34;7.10;99.90
54684;DHT22;40582;53.100;6.686;2023-04-07T05:58:00;7.10;99.90
54684;DHT22;40582;53.100;6.686;2023-04-07T06:00:26;7.10;99.90
54684;DHT22;40582;53.100;6.686;2023-04-07T06:02:52;7.10;99.90
54684;DHT22;40582;53.100;6.686;2023-04-07T06:05:18;7.10;99.90
54684;DHT22;40582;53.100;6.686;2023-04-07T06:07:44;7.20;99.90
54684;DHT22;40582;53.100;6.686;2023-04-07T06:10:10;7.20;99.90
54684;DHT22;40582;53.100;6.686;2023-04-07T06:12:35;7.20;99.90
54684;DHT22;40582;53.100;6.686;2023-04-07T06:15:01;7.30;99.90
54684;DHT22;40582;53.100;6.686;2023-04-07T06:17:27;7.20;99.90
54684;DHT22;40582;53.100;6.686;2023-04-07T06:19:53;7.30;99.90
54684;DHT22;40582;53.100;6.686;2023-04-07T06:22:18;7.30;99.90
54684;DHT22;40582;53.100;6.686;2023-04-07T06:24:44;7.30;99.90
54684;DHT22;40582;53.100;6.686;2023-04-07T06:27:09;7.30;99.90
54684;DHT22;40582;53.100;6.686;2023-04-07T06:29:36;7.40;99.90
54684;DHT22;40582;53.100;6.686;2023-04-07T06:32:01;7.40;99.90
54684;DHT22;40582;53.100;6.686;2023-04-07T06:34:27;7.40;99.90
54684;DHT22;40582;53.100;6.686;2023-04-07T06:36:53;7.40;99.90
54684;DHT22;40582;53.100;6.686;2023-04-07T06:39:18;7.40;99.90
54684;DHT22;40582;53.100;6.686;2023-04-07T06:41:44;7.50;99.90
54684;DHT22;40582;53.100;6.686;2023-04-07T06:44:11;7.50;99.90
54684;DHT22;40582;53.100;6.686;2023-04-07T06:46:37;7.60;99.90
54684;DHT22;40582;53.100;6.686;2023-04-07T06:49:03;7.70;99.90
54684;DHT22;40582;53.100;6.686;2023-04-07T06:51:29;7.70;99.90
54684;DHT22;40582;53.100;6.686;2023-04-07T06:53:56;7.70;99.90
54684;DHT22;40582;53.100;6.686;2023-04-07T06:56:22;7.80;99.90
54684;DHT22;40582;53.100;6.686;2023-04-07T06:58:48;7.80;99.90
54684;DHT22;40582;53.100;6.686;2023-04-07T07:01:14;7.80;99.90
54684;DHT22;40582;53.100;6.686;2023-04-07T07:03:40;7.80;99.90
54684;DHT22;40582;53.100;6.686;2023-04-07T07:06:06;7.90;99.90
54684;DHT22;40582;53.100;6.686;2023-04-07T07:08:32;8.00;99.90
54684;DHT22;40582;53.100;6.686;2023-04-07T07:10:58;8.10;99.90
54684;DHT22;40582;53.100;6.686;2023-04-07T07:13:24;8.20;99.90
54684;DHT22;40582;53.100;6.686;2023-04-07T07:15:51;8.20;99.90
54684;DHT22;40582;53.100;6.686;2023-04-07T07:18:17;8.30;99.90
54684;DHT22;40582;53.100;6.686;2023-04-07T07:20:43;8.30;99.90
54684;DHT22;40582;53.100;6.686;2023-04-07T07:23:09;8.40;99.90
54684;DHT22;40582;53.100;6.686;2023-04-07T07:25:35;8.50;99.90
54684;DHT22;40582;53.100;6.686;2023-04-07T07:28:00;8.60;99.90
54684;DHT22;40582;53.100;6.686;2023-04-07T07:30:26;8.70;99.90
54684;DHT22;40582;53.100;6.686;2023-04-07T07:32:53;8.80;99.90
54684;DHT22;40582;53.100;6.686;2023-04-07T07:35:19;8.80;99.90
54684;DHT22;40582;53.100;6.686;2023-04-07T07:37:45;8.80;99.90
54684;DHT22;40582;53.100;6.686;2023-04-07T07:40:12;8.70;99.90
54684;DHT22;40582;53.100;6.686;2023-04-07T07:42:38;8.70;99.90
54684;DHT22;40582;53.100;6.686;2023-04-07T07:45:04;8.60;99.90
54684;DHT22;40582;53.100;6.686;2023-04-07T07:47:30;8.60;99.90
54684;DHT22;40582;53.100;6.686;2023-04-07T07:49:56;8.90;99.90
54684;DHT22;40582;53.100;6.686;2023-04-07T07:52:22;8.70;99.90
54684;DHT22;40582;53.100;6.686;2023-04-07T07:54:49;8.60;99.90
54684;DHT22;40582;53.100;6.686;2023-04-07T07:57:15;8.60;99.90
54684;DHT22;40582;53.100;6.686;2023-04-07T07:59:40;8.60;99.90
54684;DHT22;40582;53.100;6.686;2023-04-07T08:02:07;8.50;99.90
54684;DHT22;40582;53.100;6.686;2023-04-07T08:04:33;8.60;99.90
54684;DHT22;40582;53.100;6.686;2023-04-07T08:06:59;8.60;99.90
54684;DHT22;40582;53.100;6.686;2023-04-07T08:09:25;8.60;99.90
54684;DHT22;40582;53.100;6.686;2023-04-07T08:11:51;8.70;99.90
54684;DHT22;40582;53.100;6.686;2023-04-07T08:14:17;8.80;99.90
54684;DHT22;40582;53.100;6.686;2023-04-07T08:16:43;8.90;99.90
54684;DHT22;40582;53.100;6.686;2023-04-07T08:19:09;9.10;99.90
54684;DHT22;40582;53.100;6.686;2023-04-07T08:21:35;9.10;99.90
54684;DHT22;40582;53.100;6.686;2023-04-07T08:24:01;9.20;99.90
54684;DHT22;40582;53.100;6.686;2023-04-07T08:26:27;9.30;99.90
54684;DHT22;40582;53.100;6.686;2023-04-07T08:28:52;9.40;99.90
54684;DHT22;40582;53.100;6.686;2023-04-07T08:31:19;9.40;99.90
54684;DHT22;40582;53.100;6.686;2023-04-07T08:33:44;9.50;99.90
54684;DHT22;40582;53.100;6.686;2023-04-07T08:36:11;9.60;99.90
54684;DHT22;40582;53.100;6.686;2023-04-07T08:38:37;9.70;99.90
54684;DHT22;40582;53.100;6.686;2023-04-07T08:41:12;9.90;99.90
54684;DHT22;40582;53.100;6.686;2023-04-07T08:43:43;10.10;99.90
54684;DHT22;40582;53.100;6.686;2023-04-07T08:46:11;10.10;99.90
54684;DHT22;40582;53.100;6.686;2023-04-07T08:48:38;10.20;99.90
54684;DHT22;40582;53.100;6.686;2023-04-07T08:51:05;10.30;99.90
54684;DHT22;40582;53.100;6.686;2023-04-07T08:53:42;10.40;99.90
54684;DHT22;40582;53.100;6.686;2023-04-07T08:56:13;10.50;99.90
54684;DHT22;40582;53.100;6.686;2023-04-07T08:58:39;10.60;99.90
54684;DHT22;40582;53.100;6.686;2023-04-07T09:01:06;10.60;99.90
54684;DHT22;40582;53.100;6.686;2023-04-07T09:03:33;10.60;99.90
54684;DHT22;40582;53.100;6.686;2023-04-07T09:06:00;10.70;99.90
54684;DHT22;40582;53.100;6.686;2023-04-07T09:08:26;10.90;99.90
54684;DHT22;40582;53.100;6.686;2023-04-07T09:10:53;11.00;99.90
54684;DHT22;40582;53.100;6.686;2023-04-07T09:13:19;11.00;99.90
54684;DHT22;40582;53.100;6.686;2023-04-07T09:15:45;10.90;99.90
54684;DHT22;40582;53.100;6.686;2023-04-07T09:18:11;10.80;99.90
54684;DHT22;40582;53.100;6.686;2023-04-07T09:21:02;10.70;99.90
54684;DHT22;40582;53.100;6.686;2023-04-07T09:23:33;10.50;99.90
54684;DHT22;40582;53.100;6.686;2023-04-07T09:26:20;10.50;99.90
54684;DHT22;40582;53.100;6.686;2023-04-07T09:28:56;10.30;99.90
54684;DHT22;40582;53.100;6.686;2023-04-07T09:31:22;10.20;99.90
54684;DHT22;40582;53.100;6.686;2023-04-07T09:33:50;10.20;99.90
54684;DHT22;40582;53.100;6.686;2023-04-07T09:36:17;10.20;99.90
54684;DHT22;40582;53.100;6.686;2023-04-07T09:38:44;10.10;99.90
54684;DHT22;40582;53.100;6.686;2023-04-07T09:41:12;10.10;99.90
54684;DHT22;40582;53.100;6.686;2023-04-07T09:43:43;10.10;99.90
54684;DHT22;40582;53.100;6.686;2023-04-07T09:46:18;9.90;99.90
54684;DHT22;40582;53.100;6.686;2023-04-07T09:48:45;9.80;99.90
54684;DHT22;40582;53.100;6.686;2023-04-07T09:51:15;9.80;99.90
54684;DHT22;40582;53.100;6.686;2023-04-07T09:53:46;9.90;99.90
54684;DHT22;40582;53.100;6.686;2023-04-07T09:56:14;10.00;99.90
54684;DHT22;40582;53.100;6.686;2023-04-07T09:58:43;10.10;99.90
54684;DHT22;40582;53.100;6.686;2023-04-07T10:01:09;10.40;99.90
54684;DHT22;40582;53.100;6.686;2023-04-07T10:03:36;10.70;99.90
54684;DHT22;40582;53.100;6.686;2023-04-07T10:06:03;11.00;99.90
54684;DHT22;40582;53.100;6.686;2023-04-07T10:08:31;11.30;99.90
54684;DHT22;40582;53.100;6.686;2023-04-07T10:11:01;11.90;99.90
54684;DHT22;40582;53.100;6.686;2023-04-07T10:13:34;12.00;99.90
54684;DHT22;40582;53.100;6.686;2023-04-07T10:16:03;12.00;99.90
54684;DHT22;40582;53.100;6.686;2023-04-07T10:18:30;11.80;99.90
54684;DHT22;40582;53.100;6.686;2023-04-07T10:21:01;11.60;99.90
54684;DHT22;40582;53.100;6.686;2023-04-07T10:26:00;11.50;99.90
54684;DHT22;40582;53.100;6.686;2023-04-07T10:28:27;11.60;99.90
54684;DHT22;40582;53.100;6.686;2023-04-07T10:30:55;11.60;99.90
54684;DHT22;40582;53.100;6.686;2023-04-07T10:33:50;11.40;99.90
54684;DHT22;40582;53.100;6.686;2023-04-07T10:36:17;11.50;99.90
54684;DHT22;40582;53.100;6.686;2023-04-07T10:41:35;11.60;99.90
54684;DHT22;40582;53.100;6.686;2023-04-07T10:44:05;11.50;99.90
54684;DHT22;40582;53.100;6.686;2023-04-07T10:49:16;11.50;99.90
54684;DHT22;40582;53.100;6.686;2023-04-07T10:51:42;11.50;99.90
54684;DHT22;40582;53.100;6.686;2023-04-07T10:54:18;11.60;99.90
54684;DHT22;40582;53.100;6.686;2023-04-07T10:59:30;11.90;99.90
54684;DHT22;40582;53.100;6.686;2023-04-07T11:04:39;12.20;99.90
54684;DHT22;40582;53.100;6.686;2023-04-07T11:07:05;12.10;99.90
54684;DHT22;40582;53.100;6.686;2023-04-07T11:09:31;12.10;99.90
54684;DHT22;40582;53.100;6.686;2023-04-07T11:11:57;12.00;99.90
54684;DHT22;40582;53.100;6.686;2023-04-07T11:14:27;12.00;99.90
54684;DHT22;40582;53.100;6.686;2023-04-07T11:16:53;12.20;99.90
54684;DHT22;40582;53.100;6.686;2023-04-07T11:19:19;12.30;99.90
54684;DHT22;40582;53.100;6.686;2023-04-07T11:21:44;12.50;99.90
54684;DHT22;40582;53.100;6.686;2023-04-07T11:24:30;12.60;99.90
54684;DHT22;40582;53.100;6.686;2023-04-07T11:26:56;12.70;99.90
54684;DHT22;40582;53.100;6.686;2023-04-07T11:29:31;12.80;99.90
54684;DHT22;40582;53.100;6.686;2023-04-07T11:31:58;12.90;99.90
54684;DHT22;40582;53.100;6.686;2023-04-07T11:34:35;13.00;99.90
54684;DHT22;40582;53.100;6.686;2023-04-07T11:37:20;13.00;99.90
54684;DHT22;40582;53.100;6.686;2023-04-07T11:39:53;13.00;99.90
54684;DHT22;40582;53.100;6.686;2023-04-07T11:42:38;12.90;99.90
54684;DHT22;40582;53.100;6.686;2023-04-07T11:45:17;12.90;99.90
54684;DHT22;40582;53.100;6.686;2023-04-07T11:47:44;12.90;99.90
54684;DHT22;40582;53.100;6.686;2023-04-07T11:50:11;12.90;99.90
54684;DHT22;40582;53.100;6.686;2023-04-07T11:55:06;13.00;99.90
54684;DHT22;40582;53.100;6.686;2023-04-07T11:57:40;13.10;99.90
54684;DHT22;40582;53.100;6.686;2023-04-07T12:00:11;13.10;99.90
54684;DHT22;40582;53.100;6.686;2023-04-07T12:02:37;13.10;99.90
54684;DHT22;40582;53.100;6.686;2023-04-07T12:05:03;13.20;99.90
54684;DHT22;40582;53.100;6.686;2023-04-07T12:07:29;13.30;99.90
54684;DHT22;40582;53.100;6.686;2023-04-07T12:09:55;13.20;99.90
54684;DHT22;40582;53.100;6.686;2023-04-07T12:12:25;13.10;99.90
54684;DHT22;40582;53.100;6.686;2023-04-07T12:14:52;12.90;99.90
54684;DHT22;40582;53.100;6.686;2023-04-07T12:17:25;12.70;99.90
54684;DHT22;40582;53.100;6.686;2023-04-07T12:19:51;12.60;99.90
54684;DHT22;40582;53.100;6.686;2023-04-07T12:22:18;12.50;99.90
54684;DHT22;40582;53.100;6.686;2023-04-07T12:24:44;12.50;99.90
54684;DHT22;40582;53.100;6.686;2023-04-07T12:27:10;12.60;99.90
54684;DHT22;40582;53.100;6.686;2023-04-07T12:29:36;12.70;99.90
54684;DHT22;40582;53.100;6.686;2023-04-07T12:32:03;12.80;99.90
54684;DHT22;40582;53.100;6.686;2023-04-07T12:34:29;12.80;99.90
54684;DHT22;40582;53.100;6.686;2023-04-07T12:36:55;12.80;99.90
54684;DHT22;40582;53.100;6.686;2023-04-07T12:39:21;12.80;99.90
54684;DHT22;40582;53.100;6.686;2023-04-07T12:41:46;12.70;99.90
54684;DHT22;40582;53.100;6.686;2023-04-07T12:44:15;12.60;99.90
54684;DHT22;40582;53.100;6.686;2023-04-07T12:46:41;12.80;99.90
54684;DHT22;40582;53.100;6.686;2023-04-07T12:49:07;12.90;99.90
54684;DHT22;40582;53.100;6.686;2023-04-07T12:51:33;12.80;99.90
54684;DHT22;40582;53.100;6.686;2023-04-07T12:53:59;12.50;99.90
54684;DHT22;40582;53.100;6.686;2023-04-07T12:56:25;12.50;99.90
54684;DHT22;40582;53.100;6.686;2023-04-07T12:58:53;12.60;99.90
54684;DHT22;40582;53.100;6.686;2023-04-07T13:01:19;12.80;99.90
54684;DHT22;40582;53.100;6.686;2023-04-07T13:03:45;13.00;99.90
54684;DHT22;40582;53.100;6.686;2023-04-07T13:06:11;13.20;99.90
54684;DHT22;40582;53.100;6.686;2023-04-07T13:08:37;13.40;99.90
54684;DHT22;40582;53.100;6.686;2023-04-07T13:11:03;13.50;99.90
54684;DHT22;40582;53.100;6.686;2023-04-07T13:13:30;13.50;99.90
54684;DHT22;40582;53.100;6.686;2023-04-07T13:15:56;13.50;99.90
54684;DHT22;40582;53.100;6.686;2023-04-07T13:18:22;13.60;99.90
54684;DHT22;40582;53.100;6.686;2023-04-07T13:20:48;13.70;99.90
54684;DHT22;40582;53.100;6.686;2023-04-07T13:23:13;13.70;99.90
54684;DHT22;40582;53.100;6.686;2023-04-07T13:25:39;13.60;99.90
54684;DHT22;40582;53.100;6.686;2023-04-07T13:28:06;13.50;99.90
54684;DHT22;40582;53.100;6.686;2023-04-07T13:30:31;13.50;99.90
54684;DHT22;40582;53.100;6.686;2023-04-07T13:32:57;13.50;99.90
54684;DHT22;40582;53.100;6.686;2023-04-07T13:35:23;13.60;99.90
54684;DHT22;40582;53.100;6.686;2023-04-07T13:37:49;13.60;99.90
54684;DHT22;40582;53.100;6.686;2023-04-07T13:40:14;13.60;99.90
54684;DHT22;40582;53.100;6.686;2023-04-07T13:42:40;13.60;99.90
54684;DHT22;40582;53.100;6.686;2023-04-07T13:45:06;13.50;99.90
54684;DHT22;40582;53.100;6.686;2023-04-07T13:47:32;13.50;99.90
54684;DHT22;40582;53.100;6.686;2023-04-07T13:49:59;13.50;99.90
54684;DHT22;40582;53.100;6.686;2023-04-07T13:52:25;13.50;99.90
54684;DHT22;40582;53.100;6.686;2023-04-07T13:54:51;13.50;99.90
54684;DHT22;40582;53.100;6.686;2023-04-07T13:57:18;13.40;99.90
54684;DHT22;40582;53.100;6.686;2023-04-07T13:59:48;13.40;99.90
54684;DHT22;40582;53.100;6.686;2023-04-07T14:02:17;13.50;99.90
54684;DHT22;40582;53.100;6.686;2023-04-07T14:04:42;13.60;99.90
54684;DHT22;40582;53.100;6.686;2023-04-07T14:07:08;13.60;99.90
54684;DHT22;40582;53.100;6.686;2023-04-07T14:09:34;13.70;99.90
54684;DHT22;40582;53.100;6.686;2023-04-07T14:12:00;13.70;99.90
54684;DHT22;40582;53.100;6.686;2023-04-07T14:14:25;13.60;99.90
54684;DHT22;40582;53.100;6.686;2023-04-07T14:16:51;13.40;99.90
54684;DHT22;40582;53.100;6.686;2023-04-07T14:19:20;13.30;99.90
54684;DHT22;40582;53.100;6.686;2023-04-07T14:21:50;13.20;99.90
54684;DHT22;40582;53.100;6.686;2023-04-07T14:24:16;13.20;99.90
54684;DHT22;40582;53.100;6.686;2023-04-07T14:26:42;13.10;99.90
54684;DHT22;40582;53.100;6.686;2023-04-07T14:29:08;13.00;99.90
54684;DHT22;40582;53.100;6.686;2023-04-07T14:31:34;12.90;99.90
54684;DHT22;40582;53.100;6.686;2023-04-07T14:34:00;13.00;99.90
54684;DHT22;40582;53.100;6.686;2023-04-07T14:36:25;13.00;99.90
54684;DHT22;40582;53.100;6.686;2023-04-07T14:38:51;13.00;99.90
54684;DHT22;40582;53.100;6.686;2023-04-07T14:41:18;13.00;99.90
54684;DHT22;40582;53.100;6.686;2023-04-07T14:43:45;13.10;99.90
54684;DHT22;40582;53.100;6.686;2023-04-07T14:46:12;13.10;99.90
54684;DHT22;40582;53.100;6.686;2023-04-07T14:48:39;13.30;99.90
54684;DHT22;40582;53.100;6.686;2023-04-07T14:51:11;13.30;99.90
54684;DHT22;40582;53.100;6.686;2023-04-07T14:53:37;13.30;99.90
54684;DHT22;40582;53.100;6.686;2023-04-07T14:56:04;13.20;99.90
54684;DHT22;40582;53.100;6.686;2023-04-07T14:58:31;13.20;99.90
54684;DHT22;40582;53.100;6.686;2023-04-07T15:00:56;13.40;99.90
54684;DHT22;40582;53.100;6.686;2023-04-07T15:03:22;13.30;99.90
54684;DHT22;40582;53.100;6.686;2023-04-07T15:05:48;13.40;99.90
54684;DHT22;40582;53.100;6.686;2023-04-07T15:08:14;13.30;99.90
54684;DHT22;40582;53.100;6.686;2023-04-07T15:10:39;13.20;99.90
54684;DHT22;40582;53.100;6.686;2023-04-07T15:13:05;13.30;99.90
54684;DHT22;40582;53.100;6.686;2023-04-07T15:15:31;13.40;99.90
54684;DHT22;40582;53.100;6.686;2023-04-07T15:17:57;13.40;99.90
54684;DHT22;40582;53.100;6.686;2023-04-07T15:20:22;13.50;99.90
54684;DHT22;40582;53.100;6.686;2023-04-07T15:22:48;13.60;99.90
54684;DHT22;40582;53.100;6.686;2023-04-07T15:25:14;13.60;99.90
54684;DHT22;40582;53.100;6.686;2023-04-07T15:27:39;13.70;99.90
54684;DHT22;40582;53.100;6.686;2023-04-07T15:30:05;13.70;99.90
54684;DHT22;40582;53.100;6.686;2023-04-07T15:32:31;13.70;99.90
54684;DHT22;40582;53.100;6.686;2023-04-07T15:34:57;13.80;99.90
54684;DHT22;40582;53.100;6.686;2023-04-07T15:37:23;13.90;99.90
54684;DHT22;40582;53.100;6.686;2023-04-07T15:39:50;14.00;99.90
54684;DHT22;40582;53.100;6.686;2023-04-07T15:42:15;14.10;99.90
54684;DHT22;40582;53.100;6.686;2023-04-07T15:44:41;14.10;99.90
54684;DHT22;40582;53.100;6.686;2023-04-07T15:47:07;14.20;99.90
54684;DHT22;40582;53.100;6.686;2023-04-07T15:49:34;14.20;99.90
54684;DHT22;40582;53.100;6.686;2023-04-07T15:52:03;14.10;99.10
54684;DHT22;40582;53.100;6.686;2023-04-07T15:54:30;14.10;97.70
54684;DHT22;40582;53.100;6.686;2023-04-07T15:56:55;14.00;97.30
54684;DHT22;40582;53.100;6.686;2023-04-07T15:59:21;14.00;97.10
54684;DHT22;40582;53.100;6.686;2023-04-07T16:01:47;13.90;96.50
54684;DHT22;40582;53.100;6.686;2023-04-07T16:04:12;13.80;96.30
54684;DHT22;40582;53.100;6.686;2023-04-07T16:06:38;13.80;96.40